sensor_id;sensor_type;location;lat;lon;timestamp;temperature;humidity
35613;DHT22;22054;51.646;7.078;2023-04-25T00:00:35;7.30;99.90
35613;DHT22;22054;51.646;7.078;2023-04-25T00:03:01;7.30;99.90
35613;DHT22;22054;51.646;7.078;2023-04-25T00:05:27;7.30;99.90
35613;DHT22;22054;51.646;7.078;2023-04-25T00:07:52;7.30;99.90
35613;DHT22;22054;51.646;7.078;2023-04-25T00:10:19;7.40;99.90
35613;DHT22;22054;51.646;7.078;2023-04-25T00:12:45;7.30;99.90
35613;DHT22;22054;51.646;7.078;2023-04-25T00:15:12;7.40;99.90
35613;DHT22;22054;51.646;7.078;2023-04-25T00:17:37;7.40;99.90
35613;DHT22;22054;51.646;7.078;2023-04-25T00:20:06;7.30;99.90
35613;DHT22;22054;51.646;7.078;2023-04-25T00:22:35;7.30;99.90
35613;DHT22;22054;51.646;7.078;2023-04-25T00:25:06;7.30;99.90
35613;DHT22;22054;51.646;7.078;2023-04-25T00:27:32;7.30;99.90
35613;DHT22;22054;51.646;7.078;2023-04-25T00:29:58;7.30;99.90
35613;DHT22;22054;51.646;7.078;2023-04-25T00:32:24;7.30;99.90
35613;DHT22;22054;51.646;7.078;2023-04-25T00:34:50;7.30;99.90
35613;DHT22;22054;51.646;7.078;2023-04-25T00:37:16;7.30;99.90
35613;DHT22;22054;51.646;7.078;2023-04-25T00:39:41;7.50;99.90
35613;DHT22;22054;51.646;7.078;2023-04-25T00:42:08;7.40;99.90
35613;DHT22;22054;51.646;7.078;2023-04-25T00:44:35;7.40;99.90
35613;DHT22;22054;51.646;7.078;2023-04-25T00:47:02;7.40;99.90
35613;DHT22;22054;51.646;7.078;2023-04-25T00:49:28;7.40;99.90
35613;DHT22;22054;51.646;7.078;2023-04-25T00:51:54;7.30;99.90
35613;DHT22;22054;51.646;7.078;2023-04-25T00:54:21;7.40;99.90
35613;DHT22;22054;51.646;7.078;2023-04-25T00:56:47;7.30;99.90
35613;DHT22;22054;51.646;7.078;2023-04-25T00:59:14;7.30;99.90
35613;DHT22;22054;51.646;7.078;2023-04-25T01:01:41;7.30;99.90
35613;DHT22;22054;51.646;7.078;2023-04-25T01:04:08;7.30;99.90
35613;DHT22;22054;51.646;7.078;2023-04-25T01:06:33;7.30;99.90
35613;DHT22;22054;51.646;7.078;2023-04-25T01:08:59;7.30;99.90
35613;DHT22;22054;51.646;7.078;2023-04-25T01:11:25;7.30;99.90
35613;DHT22;22054;51.646;7.078;2023-04-25T01:13:51;7.40;99.90
35613;DHT22;22054;51.646;7.078;2023-04-25T01:16:17;7.30;99.90
35613;DHT22;22054;51.646;7.078;2023-04-25T01:18:42;7.30;99.90
35613;DHT22;22054;51.646;7.078;2023-04-25T01:21:11;7.40;99.90
35613;DHT22;22054;51.646;7.078;2023-04-25T01:23:41;7.40;99.90
35613;DHT22;22054;51.646;7.078;2023-04-25T01:26:09;7.40;99.90
35613;DHT22;22054;51.646;7.078;2023-04-25T01:28:37;7.40;99.90
35613;DHT22;22054;51.646;7.078;2023-04-25T01:31:06;7.40;99.90
35613;DHT22;22054;51.646;7.078;2023-04-25T01:33:32;7.40;99.90
35613;DHT22;22054;51.646;7.078;2023-04-25T01:35:58;7.40;99.90
35613;DHT22;22054;51.646;7.078;2023-04-25T01:38:24;7.30;99.90
35613;DHT22;22054;51.646;7.078;2023-04-25T01:40:51;7.40;99.90
35613;DHT22;22054;51.646;7.078;2023-04-25T01:43:17;7.30;99.90
35613;DHT22;22054;51.646;7.078;2023-04-25T01:45:44;7.30;99.90
35613;DHT22;22054;51.646;7.078;2023-04-25T01:48:13;7.20;99.90
35613;DHT22;22054;51.646;7.078;2023-04-25T01:50:40;7.20;99.90
35613;DHT22;22054;51.646;7.078;2023-04-25T01:53:06;7.30;99.90
35613;DHT22;22054;51.646;7.078;2023-04-25T01:55:32;7.20;99.90
35613;DHT22;22054;51.646;7.078;2023-04-25T01:57:58;7.40;99.90
35613;DHT22;22054;51.646;7.078;2023-04-25T02:00:25;7.10;99.90
35613;DHT22;22054;51.646;7.078;2023-04-25T02:02:51;7.10;99.90
35613;DHT22;22054;51.646;7.078;2023-04-25T02:05:19;7.10;99.90
35613;DHT22;22054;51.646;7.078;2023-04-25T02:07:45;7.00;99.90
35613;DHT22;22054;51.646;7.078;2023-04-25T02:10:12;7.10;99.90
35613;DHT22;22054;51.646;7.078;2023-04-25T02:12:37;7.00;99.90
35613;DHT22;22054;51.646;7.078;2023-04-25T02:15:04;7.10;99.90
35613;DHT22;22054;51.646;7.078;2023-04-25T02:17:30;7.10;99.90
35613;DHT22;22054;51.646;7.078;2023-04-25T02:19:57;7.10;99.90
35613;DHT22;22054;51.646;7.078;2023-04-25T02:22:22;7.00;99.90
35613;DHT22;22054;51.646;7.078;2023-04-25T02:24:48;7.00;99.90
35613;DHT22;22054;51.646;7.078;2023-04-25T02:27:14;7.00;99.90
35613;DHT22;22054;51.646;7.078;2023-04-25T02:29:39;7.00;99.90
35613;DHT22;22054;51.646;7.078;2023-04-25T02:32:05;7.00;99.90
35613;DHT22;22054;51.646;7.078;2023-04-25T02:34:31;7.00;99.90
35613;DHT22;22054;51.646;7.078;2023-04-25T02:36:57;7.10;99.90
35613;DHT22;22054;51.646;7.078;2023-04-25T02:39:22;7.10;99.90
35613;DHT22;22054;51.646;7.078;2023-04-25T02:41:50;7.10;99.90
35613;DHT22;22054;51.646;7.078;2023-04-25T02:44:16;7.10;99.90
35613;DHT22;22054;51.646;7.078;2023-04-25T02:46:42;7.30;99.90
35613;DHT22;22054;51.646;7.078;2023-04-25T02:49:08;7.10;99.90
35613;DHT22;22054;51.646;7.078;2023-04-25T02:51:33;7.20;99.90
35613;DHT22;22054;51.646;7.078;2023-04-25T02:53:59;7.20;99.90
35613;DHT22;22054;51.646;7.078;2023-04-25T02:56:25;7.20;99.90
35613;DHT22;22054;51.646;7.078;2023-04-25T02:58:52;7.20;99.90
35613;DHT22;22054;51.646;7.078;2023-04-25T03:01:18;7.50;99.90
35613;DHT22;22054;51.646;7.078;2023-04-25T03:03:44;7.20;99.90
35613;DHT22;22054;51.646;7.078;2023-04-25T03:06:10;7.10;99.90
35613;DHT22;22054;51.646;7.078;2023-04-25T03:08:36;7.00;99.90
35613;DHT22;22054;51.646;7.078;2023-04-25T03:11:01;7.20;99.90
35613;DHT22;22054;51.646;7.078;2023-04-25T03:13:27;7.20;99.90
35613;DHT22;22054;51.646;7.078;2023-04-25T03:15:55;7.20;99.90
35613;DHT22;22054;51.646;7.078;2023-04-25T03:18:21;7.20;99.90
35613;DHT22;22054;51.646;7.078;2023-04-25T03:20:47;7.20;99.90
35613;DHT22;22054;51.646;7.078;2023-04-25T03:23:12;7.00;99.90
35613;DHT22;22054;51.646;7.078;2023-04-25T03:25:38;6.90;99.90
35613;DHT22;22054;51.646;7.078;2023-04-25T03:28:04;6.80;99.90
35613;DHT22;22054;51.646;7.078;2023-04-25T03:30:30;6.80;99.90
35613;DHT22;22054;51.646;7.078;2023-04-25T03:32:55;6.50;99.90
35613;DHT22;22054;51.646;7.078;2023-04-25T03:35:21;6.20;99.90
35613;DHT22;22054;51.646;7.078;2023-04-25T03:37:48;6.00;99.90
35613;DHT22;22054;51.646;7.078;2023-04-25T03:40:14;5.80;99.90
35613;DHT22;22054;51.646;7.078;2023-04-25T03:42:40;5.80;99.90
35613;DHT22;22054;51.646;7.078;2023-04-25T03:45:06;5.80;99.90
35613;DHT22;22054;51.646;7.078;2023-04-25T03:47:33;5.80;99.90
35613;DHT22;22054;51.646;7.078;2023-04-25T03:49:58;5.80;99.90
35613;DHT22;22054;51.646;7.078;2023-04-25T03:52:26;5.70;99.90
35613;DHT22;22054;51.646;7.078;2023-04-25T03:54:51;5.60;99.90
35613;DHT22;22054;51.646;7.078;2023-04-25T03:57:17;5.70;99.90
35613;DHT22;22054;51.646;7.078;2023-04-25T03:59:43;5.70;99.90
35613;DHT22;22054;51.646;7.078;2023-04-25T04:02:09;5.70;99.90
35613;DHT22;22054;51.646;7.078;2023-04-25T04:04:35;5.70;99.90
35613;DHT22;22054;51.646;7.078;2023-04-25T04:07:00;5.70;99.90
35613;DHT22;22054;51.646;7.078;2023-04-25T04:09:26;5.80;99.90
35613;DHT22;22054;51.646;7.078;2023-04-25T04:11:53;5.70;99.90
35613;DHT22;22054;51.646;7.078;2023-04-25T04:14:19;5.80;99.90
35613;DHT22;22054;51.646;7.078;2023-04-25T04:16:44;5.70;99.90
35613;DHT22;22054;51.646;7.078;2023-04-25T04:19:10;5.70;99.90
35613;DHT22;22054;51.646;7.078;2023-04-25T04:21:36;5.60;99.90
35613;DHT22;22054;51.646;7.078;2023-04-25T04:24:02;5.60;99.90
35613;DHT22;22054;51.646;7.078;2023-04-25T04:26:28;5.60;99.90
35613;DHT22;22054;51.646;7.078;2023-04-25T04:28:54;5.60;99.90
35613;DHT22;22054;51.646;7.078;2023-04-25T04:31:22;5.60;99.90
35613;DHT22;22054;51.646;7.078;2023-04-25T04:33:48;5.60;99.90
35613;DHT22;22054;51.646;7.078;2023-04-25T04:36:13;5.70;99.90
35613;DHT22;22054;51.646;7.078;2023-04-25T04:38:40;5.60;99.90
35613;DHT22;22054;51.646;7.078;2023-04-25T04:41:06;5.60;99.90
35613;DHT22;22054;51.646;7.078;2023-04-25T04:43:32;5.60;99.90
35613;DHT22;22054;51.646;7.078;2023-04-25T04:46:02;6.00;99.90
35613;DHT22;22054;51.646;7.078;2023-04-25T04:48:29;5.90;99.90
35613;DHT22;22054;51.646;7.078;2023-04-25T04:50:58;5.70;99.90
35613;DHT22;22054;51.646;7.078;2023-04-25T04:53:24;5.80;99.90
35613;DHT22;22054;51.646;7.078;2023-04-25T04:55:49;5.80;99.90
35613;DHT22;22054;51.646;7.078;2023-04-25T04:58:15;5.80;99.90
35613;DHT22;22054;51.646;7.078;2023-04-25T05:00:41;5.90;99.90
35613;DHT22;22054;51.646;7.078;2023-04-25T05:03:07;6.00;99.90
35613;DHT22;22054;51.646;7.078;2023-04-25T05:05:32;6.00;99.90
35613;DHT22;22054;51.646;7.078;2023-04-25T05:07:58;6.10;99.90
35613;DHT22;22054;51.646;7.078;2023-04-25T05:10:25;6.10;99.90
35613;DHT22;22054;51.646;7.078;2023-04-25T05:12:51;6.10;99.90
35613;DHT22;22054;51.646;7.078;2023-04-25T05:15:17;6.10;99.90
35613;DHT22;22054;51.646;7.078;2023-04-25T05:17:42;6.20;99.90
35613;DHT22;22054;51.646;7.078;2023-04-25T05:20:09;6.20;99.90
35613;DHT22;22054;51.646;7.078;2023-04-25T05:22:35;6.20;99.90
35613;DHT22;22054;51.646;7.078;2023-04-25T05:25:01;6.30;99.90
35613;DHT22;22054;51.646;7.078;2023-04-25T05:27:26;6.40;99.90
35613;DHT22;22054;51.646;7.078;2023-04-25T05:29:52;6.50;99.90
35613;DHT22;22054;51.646;7.078;2023-04-25T05:32:18;6.40;99.90
35613;DHT22;22054;51.646;7.078;2023-04-25T05:34:44;6.50;99.90
35613;DHT22;22054;51.646;7.078;2023-04-25T05:37:10;6.50;99.90
35613;DHT22;22054;51.646;7.078;2023-04-25T05:39:36;6.60;99.90
35613;DHT22;22054;51.646;7.078;2023-04-25T05:42:01;6.70;99.90
35613;DHT22;22054;51.646;7.078;2023-04-25T05:44:30;6.80;99.90
35613;DHT22;22054;51.646;7.078;2023-04-25T05:46:56;6.80;99.90
35613;DHT22;22054;51.646;7.078;2023-04-25T05:49:21;6.80;99.90
35613;DHT22;22054;51.646;7.078;2023-04-25T05:51:47;6.80;99.90
35613;DHT22;22054;51.646;7.078;2023-04-25T05:54:13;6.80;99.90
35613;DHT22;22054;51.646;7.078;2023-04-25T05:56:38;6.70;99.90
35613;DHT22;22054;51.646;7.078;2023-04-25T05:59:05;6.60;99.90
35613;DHT22;22054;51.646;7.078;2023-04-25T06:01:31;6.60;99.90
35613;DHT22;22054;51.646;7.078;2023-04-25T06:04:00;6.70;99.90
35613;DHT22;22054;51.646;7.078;2023-04-25T06:06:26;6.80;99.90
35613;DHT22;22054;51.646;7.078;2023-04-25T06:08:52;7.00;99.90
35613;DHT22;22054;51.646;7.078;2023-04-25T06:11:19;7.20;99.90
35613;DHT22;22054;51.646;7.078;2023-04-25T06:13:45;7.50;99.90
35613;DHT22;22054;51.646;7.078;2023-04-25T06:16:11;7.50;99.90
35613;DHT22;22054;51.646;7.078;2023-04-25T06:18:37;7.80;99.90
35613;DHT22;22054;51.646;7.078;2023-04-25T06:21:03;7.80;99.90
35613;DHT22;22054;51.646;7.078;2023-04-25T06:23:29;7.80;99.90
35613;DHT22;22054;51.646;7.078;2023-04-25T06:25:54;7.80;99.90
35613;DHT22;22054;51.646;7.078;2023-04-25T06:28:20;7.70;99.90
35613;DHT22;22054;51.646;7.078;2023-04-25T06:30:47;7.80;99.90
35613;DHT22;22054;51.646;7.078;2023-04-25T06:33:13;8.00;99.90
35613;DHT22;22054;51.646;7.078;2023-04-25T06:35:38;7.90;99.90
35613;DHT22;22054;51.646;7.078;2023-04-25T06:38:04;7.80;99.90
35613;DHT22;22054;51.646;7.078;2023-04-25T06:40:30;7.80;99.90
35613;DHT22;22054;51.646;7.078;2023-04-25T06:42:56;7.80;99.90
35613;DHT22;22054;51.646;7.078;2023-04-25T06:45:22;7.80;99.90
35613;DHT22;22054;51.646;7.078;2023-04-25T06:47:47;7.80;99.90
35613;DHT22;22054;51.646;7.078;2023-04-25T06:50:13;7.80;99.90
35613;DHT22;22054;51.646;7.078;2023-04-25T06:52:39;7.90;99.90
35613;DHT22;22054;51.646;7.078;2023-04-25T06:55:05;7.90;99.90
35613;DHT22;22054;51.646;7.078;2023-04-25T06:57:31;7.90;99.90
35613;DHT22;22054;51.646;7.078;2023-04-25T06:59:56;8.00;99.90
35613;DHT22;22054;51.646;7.078;2023-04-25T07:02:22;8.10;99.90
35613;DHT22;22054;51.646;7.078;2023-04-25T07:04:48;8.40;99.90
35613;DHT22;22054;51.646;7.078;2023-04-25T07:07:14;8.60;99.90
35613;DHT22;22054;51.646;7.078;2023-04-25T07:09:39;8.60;99.90
35613;DHT22;22054;51.646;7.078;2023-04-25T07:12:05;8.70;99.90
35613;DHT22;22054;51.646;7.078;2023-04-25T07:14:31;8.80;99.90
35613;DHT22;22054;51.646;7.078;2023-04-25T07:16:57;8.80;99.90
35613;DHT22;22054;51.646;7.078;2023-04-25T07:19:23;8.90;99.90
35613;DHT22;22054;51.646;7.078;2023-04-25T07:21:54;9.00;99.90
35613;DHT22;22054;51.646;7.078;2023-04-25T07:24:20;8.80;99.90
35613;DHT22;22054;51.646;7.078;2023-04-25T07:26:46;8.70;99.90
35613;DHT22;22054;51.646;7.078;2023-04-25T07:29:12;8.70;99.90
35613;DHT22;22054;51.646;7.078;2023-04-25T07:31:38;8.80;99.90
35613;DHT22;22054;51.646;7.078;2023-04-25T07:34:03;8.70;99.90
35613;DHT22;22054;51.646;7.078;2023-04-25T07:36:29;9.00;99.90
35613;DHT22;22054;51.646;7.078;2023-04-25T07:38:56;9.10;99.90
35613;DHT22;22054;51.646;7.078;2023-04-25T07:41:21;9.30;99.90
35613;DHT22;22054;51.646;7.078;2023-04-25T07:43:47;9.30;99.90
35613;DHT22;22054;51.646;7.078;2023-04-25T07:46:13;9.40;99.90
35613;DHT22;22054;51.646;7.078;2023-04-25T07:48:39;9.30;99.90
35613;DHT22;22054;51.646;7.078;2023-04-25T07:51:04;9.70;99.90
35613;DHT22;22054;51.646;7.078;2023-04-25T07:53:30;10.00;99.90
35613;DHT22;22054;51.646;7.078;2023-04-25T07:55:57;10.20;99.90
35613;DHT22;22054;51.646;7.078;2023-04-25T07:58:23;10.20;99.90
35613;DHT22;22054;51.646;7.078;2023-04-25T08:00:49;10.10;99.90
35613;DHT22;22054;51.646;7.078;2023-04-25T08:03:15;10.20;99.90
35613;DHT22;22054;51.646;7.078;2023-04-25T08:05:41;10.20;99.90
35613;DHT22;22054;51.646;7.078;2023-04-25T08:08:06;10.30;99.90
35613;DHT22;22054;51.646;7.078;2023-04-25T08:10:33;10.40;99.90
35613;DHT22;22054;51.646;7.078;2023-04-25T08:12:59;10.40;99.90
35613;DHT22;22054;51.646;7.078;2023-04-25T08:15:25;10.20;99.90
35613;DHT22;22054;51.646;7.078;2023-04-25T08:17:51;10.00;99.90
35613;DHT22;22054;51.646;7.078;2023-04-25T08:20:18;9.90;99.90
35613;DHT22;22054;51.646;7.078;2023-04-25T08:22:44;9.90;99.90
35613;DHT22;22054;51.646;7.078;2023-04-25T08:25:10;10.10;99.90
35613;DHT22;22054;51.646;7.078;2023-04-25T08:27:35;10.20;99.90
35613;DHT22;22054;51.646;7.078;2023-04-25T08:30:02;10.20;99.90
35613;DHT22;22054;51.646;7.078;2023-04-25T08:32:29;10.40;99.90
35613;DHT22;22054;51.646;7.078;2023-04-25T08:34:54;10.60;99.90
35613;DHT22;22054;51.646;7.078;2023-04-25T08:37:21;10.70;99.90
35613;DHT22;22054;51.646;7.078;2023-04-25T08:39:47;11.20;99.90
35613;DHT22;22054;51.646;7.078;2023-04-25T08:42:15;11.40;99.90
35613;DHT22;22054;51.646;7.078;2023-04-25T08:44:41;11.70;99.90
35613;DHT22;22054;51.646;7.078;2023-04-25T08:47:06;11.50;99.90
35613;DHT22;22054;51.646;7.078;2023-04-25T08:49:33;11.10;99.90
35613;DHT22;22054;51.646;7.078;2023-04-25T08:52:02;11.00;99.90
35613;DHT22;22054;51.646;7.078;2023-04-25T08:54:31;11.20;99.90
35613;DHT22;22054;51.646;7.078;2023-04-25T08:57:01;11.30;99.90
35613;DHT22;22054;51.646;7.078;2023-04-25T08:59:28;11.20;99.90
35613;DHT22;22054;51.646;7.078;2023-04-25T09:01:54;11.00;99.90
35613;DHT22;22054;51.646;7.078;2023-04-25T09:04:20;10.70;99.90
35613;DHT22;22054;51.646;7.078;2023-04-25T09:06:47;10.90;99.90
35613;DHT22;22054;51.646;7.078;2023-04-25T09:09:13;11.10;99.90
35613;DHT22;22054;51.646;7.078;2023-04-25T09:11:39;11.50;99.90
35613;DHT22;22054;51.646;7.078;2023-04-25T09:14:15;11.80;99.90
35613;DHT22;22054;51.646;7.078;2023-04-25T09:19:24;12.50;99.90
35613;DHT22;22054;51.646;7.078;2023-04-25T09:21:55;12.40;99.90
35613;DHT22;22054;51.646;7.078;2023-04-25T09:24:44;12.60;99.90
35613;DHT22;22054;51.646;7.078;2023-04-25T09:27:13;12.50;99.90
35613;DHT22;22054;51.646;7.078;2023-04-25T09:29:44;12.80;99.90
35613;DHT22;22054;51.646;7.078;2023-04-25T09:32:17;12.70;99.90
35613;DHT22;22054;51.646;7.078;2023-04-25T09:34:45;12.70;99.90
35613;DHT22;22054;51.646;7.078;2023-04-25T09:37:28;13.00;99.90
35613;DHT22;22054;51.646;7.078;2023-04-25T09:39:59;12.70;99.90
35613;DHT22;22054;51.646;7.078;2023-04-25T09:42:28;12.30;99.90
35613;DHT22;22054;51.646;7.078;2023-04-25T09:44:59;11.90;99.90
35613;DHT22;22054;51.646;7.078;2023-04-25T09:47:27;12.10;99.90
35613;DHT22;22054;51.646;7.078;2023-04-25T09:49:54;13.00;99.90
35613;DHT22;22054;51.646;7.078;2023-04-25T09:52:24;13.30;99.90
35613;DHT22;22054;51.646;7.078;2023-04-25T09:54:51;14.70;99.60
35613;DHT22;22054;51.646;7.078;2023-04-25T09:57:18;14.40;97.80
35613;DHT22;22054;51.646;7.078;2023-04-25T09:59:49;14.20;99.40
35613;DHT22;22054;51.646;7.078;2023-04-25T10:02:18;14.60;98.80
35613;DHT22;22054;51.646;7.078;2023-04-25T10:04:55;14.90;98.20
35613;DHT22;22054;51.646;7.078;2023-04-25T10:07:26;14.30;97.80
35613;DHT22;22054;51.646;7.078;2023-04-25T10:10:02;13.70;99.90
35613;DHT22;22054;51.646;7.078;2023-04-25T10:12:30;12.60;99.90
35613;DHT22;22054;51.646;7.078;2023-04-25T10:14:58;11.80;99.90
35613;DHT22;22054;51.646;7.078;2023-04-25T10:17:24;11.30;99.90
35613;DHT22;22054;51.646;7.078;2023-04-25T10:19:52;10.80;99.90
35613;DHT22;22054;51.646;7.078;2023-04-25T10:22:38;10.60;99.90
35613;DHT22;22054;51.646;7.078;2023-04-25T10:25:06;10.00;99.90
35613;DHT22;22054;51.646;7.078;2023-04-25T10:27:34;9.50;99.90
35613;DHT22;22054;51.646;7.078;2023-04-25T10:30:13;9.30;99.90
35613;DHT22;22054;51.646;7.078;2023-04-25T10:32:59;9.30;99.90
35613;DHT22;22054;51.646;7.078;2023-04-25T10:35:26;9.30;99.90
35613;DHT22;22054;51.646;7.078;2023-04-25T10:38:08;9.30;99.90
35613;DHT22;22054;51.646;7.078;2023-04-25T10:40:35;9.00;99.90
35613;DHT22;22054;51.646;7.078;2023-04-25T10:46:24;9.50;99.90
35613;DHT22;22054;51.646;7.078;2023-04-25T10:52:33;10.20;99.90
35613;DHT22;22054;51.646;7.078;2023-04-25T10:54:59;10.50;99.90
35613;DHT22;22054;51.646;7.078;2023-04-25T10:57:42;10.80;99.90
35613;DHT22;22054;51.646;7.078;2023-04-25T11:00:13;11.00;99.90
35613;DHT22;22054;51.646;7.078;2023-04-25T11:05:22;11.60;99.90
35613;DHT22;22054;51.646;7.078;2023-04-25T11:07:55;11.80;99.90
35613;DHT22;22054;51.646;7.078;2023-04-25T11:10:29;11.80;99.90
35613;DHT22;22054;51.646;7.078;2023-04-25T11:12:57;12.20;99.90
35613;DHT22;22054;51.646;7.078;2023-04-25T11:15:24;12.60;99.90
35613;DHT22;22054;51.646;7.078;2023-04-25T11:17:54;12.90;99.90
35613;DHT22;22054;51.646;7.078;2023-04-25T11:20:22;13.20;99.90
35613;DHT22;22054;51.646;7.078;2023-04-25T11:22:51;13.40;99.90
35613;DHT22;22054;51.646;7.078;2023-04-25T11:25:17;14.60;98.80
35613;DHT22;22054;51.646;7.078;2023-04-25T11:27:56;16.10;95.30
35613;DHT22;22054;51.646;7.078;2023-04-25T11:30:25;16.30;86.80
35613;DHT22;22054;51.646;7.078;2023-04-25T11:32:51;17.20;85.20
35613;DHT22;22054;51.646;7.078;2023-04-25T11:35:18;18.60;77.90
35613;DHT22;22054;51.646;7.078;2023-04-25T11:37:44;20.20;70.50
35613;DHT22;22054;51.646;7.078;2023-04-25T11:40:11;19.70;61.30
35613;DHT22;22054;51.646;7.078;2023-04-25T11:42:38;18.60;62.00
35613;DHT22;22054;51.646;7.078;2023-04-25T11:45:05;16.80;62.30
35613;DHT22;22054;51.646;7.078;2023-04-25T11:47:32;16.00;69.70
35613;DHT22;22054;51.646;7.078;2023-04-25T11:49:59;16.20;71.90
35613;DHT22;22054;51.646;7.078;2023-04-25T11:52:38;17.20;71.70
35613;DHT22;22054;51.646;7.078;2023-04-25T11:55:09;16.50;72.90
35613;DHT22;22054;51.646;7.078;2023-04-25T11:57:47;15.20;78.60
35613;DHT22;22054;51.646;7.078;2023-04-25T12:00:21;14.60;87.80
35613;DHT22;22054;51.646;7.078;2023-04-25T12:02:53;13.90;92.70
35613;DHT22;22054;51.646;7.078;2023-04-25T12:05:23;14.20;92.50
35613;DHT22;22054;51.646;7.078;2023-04-25T12:07:49;15.20;89.60
35613;DHT22;22054;51.646;7.078;2023-04-25T12:10:16;15.30;91.30
35613;DHT22;22054;51.646;7.078;2023-04-25T12:12:45;15.10;87.50
35613;DHT22;22054;51.646;7.078;2023-04-25T12:15:22;14.60;89.00
35613;DHT22;22054;51.646;7.078;2023-04-25T12:17:51;13.50;91.30
35613;DHT22;22054;51.646;7.078;2023-04-25T12:20:20;13.00;92.10
35613;DHT22;22054;51.646;7.078;2023-04-25T12:23:00;12.50;92.00
35613;DHT22;22054;51.646;7.078;2023-04-25T12:25:38;11.90;92.40
35613;DHT22;22054;51.646;7.078;2023-04-25T12:28:14;11.60;94.30
35613;DHT22;22054;51.646;7.078;2023-04-25T12:33:34;11.70;99.90
35613;DHT22;22054;51.646;7.078;2023-04-25T12:36:06;11.80;94.60
35613;DHT22;22054;51.646;7.078;2023-04-25T12:38:38;11.90;95.90
35613;DHT22;22054;51.646;7.078;2023-04-25T12:41:06;12.40;94.80
35613;DHT22;22054;51.646;7.078;2023-04-25T12:43:32;13.20;93.60
35613;DHT22;22054;51.646;7.078;2023-04-25T12:45:58;13.80;90.80
35613;DHT22;22054;51.646;7.078;2023-04-25T12:48:24;15.60;89.00
35613;DHT22;22054;51.646;7.078;2023-04-25T12:50:51;17.80;76.50
35613;DHT22;22054;51.646;7.078;2023-04-25T12:53:18;20.00;66.40
35613;DHT22;22054;51.646;7.078;2023-04-25T12:55:45;21.60;57.70
35613;DHT22;22054;51.646;7.078;2023-04-25T12:58:12;23.10;53.30
35613;DHT22;22054;51.646;7.078;2023-04-25T13:00:40;22.70;51.50
35613;DHT22;22054;51.646;7.078;2023-04-25T13:03:06;21.50;53.10
35613;DHT22;22054;51.646;7.078;2023-04-25T13:05:32;19.20;57.00
35613;DHT22;22054;51.646;7.078;2023-04-25T13:07:57;17.10;62.80
35613;DHT22;22054;51.646;7.078;2023-04-25T13:10:24;15.20;74.90
35613;DHT22;22054;51.646;7.078;2023-04-25T13:12:50;13.70;89.60
35613;DHT22;22054;51.646;7.078;2023-04-25T13:15:16;13.10;94.10
35613;DHT22;22054;51.646;7.078;2023-04-25T13:17:42;13.10;98.60
35613;DHT22;22054;51.646;7.078;2023-04-25T13:20:09;13.90;99.50
35613;DHT22;22054;51.646;7.078;2023-04-25T13:22:36;15.50;97.90
35613;DHT22;22054;51.646;7.078;2023-04-25T13:25:06;17.00;92.50
35613;DHT22;22054;51.646;7.078;2023-04-25T13:27:34;17.80;88.50
35613;DHT22;22054;51.646;7.078;2023-04-25T13:30:01;18.00;82.20
35613;DHT22;22054;51.646;7.078;2023-04-25T13:32:41;16.90;85.90
35613;DHT22;22054;51.646;7.078;2023-04-25T13:35:11;16.20;91.40
35613;DHT22;22054;51.646;7.078;2023-04-25T13:37:39;16.10;91.90
35613;DHT22;22054;51.646;7.078;2023-04-25T13:40:08;16.30;94.00
35613;DHT22;22054;51.646;7.078;2023-04-25T13:42:42;17.60;89.80
35613;DHT22;22054;51.646;7.078;2023-04-25T13:45:10;19.90;79.10
35613;DHT22;22054;51.646;7.078;2023-04-25T13:47:36;22.80;65.60
35613;DHT22;22054;51.646;7.078;2023-04-25T13:50:03;23.80;58.30
35613;DHT22;22054;51.646;7.078;2023-04-25T13:52:31;24.20;46.20
35613;DHT22;22054;51.646;7.078;2023-04-25T13:54:57;24.00;42.50
35613;DHT22;22054;51.646;7.078;2023-04-25T13:57:23;23.00;44.60
35613;DHT22;22054;51.646;7.078;2023-04-25T14:00:08;22.40;43.80
35613;DHT22;22054;51.646;7.078;2023-04-25T14:02:36;22.70;46.50
35613;DHT22;22054;51.646;7.078;2023-04-25T14:05:05;23.90;43.70
35613;DHT22;22054;51.646;7.078;2023-04-25T14:07:33;22.90;43.60
35613;DHT22;22054;51.646;7.078;2023-04-25T14:10:01;21.80;44.70
35613;DHT22;22054;51.646;7.078;2023-04-25T14:12:27;21.10;46.40
35613;DHT22;22054;51.646;7.078;2023-04-25T14:14:53;20.90;47.40
35613;DHT22;22054;51.646;7.078;2023-04-25T14:17:19;21.00;47.40
35613;DHT22;22054;51.646;7.078;2023-04-25T14:19:45;19.10;49.70
35613;DHT22;22054;51.646;7.078;2023-04-25T14:22:13;17.80;52.40
35613;DHT22;22054;51.646;7.078;2023-04-25T14:24:40;16.40;55.70
35613;DHT22;22054;51.646;7.078;2023-04-25T14:27:06;15.70;58.30
35613;DHT22;22054;51.646;7.078;2023-04-25T14:29:32;15.20;61.10
35613;DHT22;22054;51.646;7.078;2023-04-25T14:31:58;15.10;62.20
35613;DHT22;22054;51.646;7.078;2023-04-25T14:34:25;14.80;66.60
35613;DHT22;22054;51.646;7.078;2023-04-25T14:36:51;13.90;72.40
35613;DHT22;22054;51.646;7.078;2023-04-25T14:39:18;13.50;86.10
35613;DHT22;22054;51.646;7.078;2023-04-25T14:41:44;13.10;92.00
35613;DHT22;22054;51.646;7.078;2023-04-25T14:44:10;12.60;94.70
35613;DHT22;22054;51.646;7.078;2023-04-25T14:46:37;12.20;98.30
35613;DHT22;22054;51.646;7.078;2023-04-25T14:49:03;12.00;99.10
35613;DHT22;22054;51.646;7.078;2023-04-25T14:51:29;12.00;99.90
35613;DHT22;22054;51.646;7.078;2023-04-25T14:53:56;12.00;99.90
35613;DHT22;22054;51.646;7.078;2023-04-25T14:56:22;11.90;99.90
35613;DHT22;22054;51.646;7.078;2023-04-25T14:58:48;11.80;99.90
35613;DHT22;22054;51.646;7.078;2023-04-25T15:01:14;11.90;99.90
35613;DHT22;22054;51.646;7.078;2023-04-25T15:03:40;12.10;99.90
35613;DHT22;22054;51.646;7.078;2023-04-25T15:06:06;12.30;99.90
35613;DHT22;22054;51.646;7.078;2023-04-25T15:08:32;13.90;98.90
35613;DHT22;22054;51.646;7.078;2023-04-25T15:10:59;15.10;93.50
35613;DHT22;22054;51.646;7.078;2023-04-25T15:13:25;16.40;90.60
35613;DHT22;22054;51.646;7.078;2023-04-25T15:15:51;17.60;82.20
35613;DHT22;22054;51.646;7.078;2023-04-25T15:18:20;18.60;75.60
35613;DHT22;22054;51.646;7.078;2023-04-25T15:20:50;19.10;67.50
35613;DHT22;22054;51.646;7.078;2023-04-25T15:23:17;19.80;60.00
35613;DHT22;22054;51.646;7.078;2023-04-25T15:25:43;20.60;61.40
35613;DHT22;22054;51.646;7.078;2023-04-25T15:28:10;20.60;58.90
35613;DHT22;22054;51.646;7.078;2023-04-25T15:30:35;20.40;63.90
35613;DHT22;22054;51.646;7.078;2023-04-25T15:33:01;20.20;61.30
35613;DHT22;22054;51.646;7.078;2023-04-25T15:35:28;19.00;65.30
35613;DHT22;22054;51.646;7.078;2023-04-25T15:37:53;17.70;68.30
35613;DHT22;22054;51.646;7.078;2023-04-25T15:40:19;16.60;70.50
35613;DHT22;22054;51.646;7.078;2023-04-25T15:42:47;15.60;75.70
35613;DHT22;22054;51.646;7.078;2023-04-25T15:45:18;14.60;88.20
35613;DHT22;22054;51.646;7.078;2023-04-25T15:47:45;14.10;97.50
35613;DHT22;22054;51.646;7.078;2023-04-25T15:50:11;13.40;99.90
35613;DHT22;22054;51.646;7.078;2023-04-25T15:52:38;13.00;99.90
35613;DHT22;22054;51.646;7.078;2023-04-25T15:55:05;12.30;99.90